createdAt,value
2023-04-29T00:01:32.270Z,10.93
2023-04-29T00:03:59.815Z,10.92
2023-04-29T00:06:28.540Z,10.87
2023-04-29T00:08:55.894Z,10.87
2023-04-29T00:11:23.180Z,10.73
2023-04-29T00:13:50.475Z,10.76
2023-04-29T00:16:17.787Z,10.75
2023-04-29T00:18:45.169Z,10.71
2023-04-29T00:21:12.521Z,10.74
2023-04-29T00:23:39.842Z,10.76
2023-04-29T00:26:07.302Z,10.59
2023-04-29T00:28:34.620Z,10.62
2023-04-29T00:31:02.329Z,10.52
2023-04-29T00:33:30.070Z,10.45
2023-04-29T00:35:57.503Z,10.48
2023-04-29T00:38:25.350Z,10.48
2023-04-29T00:40:52.645Z,10.42
2023-04-29T00:43:20.245Z,10.37
2023-04-29T00:45:47.765Z,10.30
2023-04-29T00:48:15.965Z,10.23
2023-04-29T00:50:43.306Z,10.29
2023-04-29T00:53:12.971Z,10.35
2023-04-29T00:55:41.600Z,10.44
2023-04-29T00:58:10.666Z,10.46
2023-04-29T01:00:38.022Z,10.40
2023-04-29T01:03:05.635Z,10.46
2023-04-29T01:05:32.999Z,10.55
2023-04-29T01:08:22.508Z,10.59
2023-04-29T01:10:54.705Z,10.65
2023-04-29T01:13:33.705Z,10.62
2023-04-29T01:16:04.393Z,10.63
2023-04-29T01:18:41.727Z,10.58
2023-04-29T01:21:09.273Z,10.55
2023-04-29T01:23:36.859Z,10.57
2023-04-29T01:26:05.974Z,10.52
2023-04-29T01:29:02.460Z,10.39
2023-04-29T01:31:41.663Z,10.43
2023-04-29T01:34:10.641Z,10.38
2023-04-29T01:36:57.283Z,10.36
2023-04-29T01:40:07.187Z,10.29
2023-04-29T01:42:41.593Z,10.22
2023-04-29T01:45:17.748Z,10.06
2023-04-29T01:47:46.471Z,10.07
2023-04-29T01:50:14.294Z,10.06
2023-04-29T01:52:41.700Z,9.98
2023-04-29T01:55:09.634Z,9.96
2023-04-29T01:57:47.521Z,9.79
2023-04-29T02:00:34.979Z,9.88
2023-04-29T02:03:02.679Z,9.86
2023-04-29T02:05:39.760Z,9.91
2023-04-29T02:08:07.851Z,9.84
2023-04-29T02:10:39.476Z,9.75
2023-04-29T02:13:32.500Z,9.63
2023-04-29T02:16:10.525Z,9.68
2023-04-29T02:18:40.697Z,9.63
2023-04-29T02:21:08.021Z,9.49
2023-04-29T02:23:36.158Z,9.44
2023-04-29T02:26:06.986Z,9.37
2023-04-29T02:28:35.150Z,9.33
2023-04-29T02:31:02.670Z,9.31
2023-04-29T02:33:31.255Z,9.27
2023-04-29T02:35:59.800Z,9.23
2023-04-29T02:38:27.179Z,9.26
2023-04-29T02:40:54.448Z,9.21
2023-04-29T02:43:22.319Z,9.18
2023-04-29T02:45:49.698Z,9.19
2023-04-29T02:48:17.131Z,9.24
2023-04-29T02:50:44.467Z,9.23
2023-04-29T02:53:11.736Z,9.25
2023-04-29T02:55:39.013Z,9.29
2023-04-29T02:58:10.696Z,9.31
2023-04-29T03:00:38.066Z,9.29
2023-04-29T03:03:05.602Z,9.29
2023-04-29T03:05:33.138Z,9.37
2023-04-29T03:08:00.387Z,9.33
2023-04-29T03:10:29.175Z,9.27
2023-04-29T03:12:56.593Z,9.26
2023-04-29T03:15:23.914Z,9.14
2023-04-29T03:17:52.152Z,9.20
2023-04-29T03:20:19.668Z,9.08
2023-04-29T03:22:46.892Z,9.11
2023-04-29T03:25:14.201Z,9.20
2023-04-29T03:27:42.135Z,9.17
2023-04-29T03:30:09.942Z,9.19
2023-04-29T03:32:43.227Z,9.08
2023-04-29T03:35:14.108Z,9.10
2023-04-29T03:38:02.971Z,8.84
2023-04-29T03:40:33.136Z,9.12
2023-04-29T03:43:01.151Z,9.11
2023-04-29T03:45:28.472Z,9.10
2023-04-29T03:47:56.009Z,9.02
2023-04-29T03:50:23.415Z,8.98
2023-04-29T03:52:50.963Z,8.98
2023-04-29T03:55:19.618Z,8.99
2023-04-29T03:57:47.746Z,8.90
2023-04-29T04:00:17.553Z,9.05
2023-04-29T04:02:47.295Z,9.05
2023-04-29T04:05:15.416Z,9.11
2023-04-29T04:07:48.288Z,9.12
2023-04-29T04:10:35.840Z,9.13
2023-04-29T04:13:08.053Z,9.18
2023-04-29T04:15:35.947Z,9.15
2023-04-29T04:18:03.443Z,9.19
2023-04-29T04:20:30.820Z,9.20
2023-04-29T04:22:58.123Z,9.17
2023-04-29T04:25:30.378Z,9.24
2023-04-29T04:28:07.707Z,9.26
2023-04-29T04:30:51.517Z,9.30
2023-04-29T04:33:18.980Z,9.27
2023-04-29T04:35:47.870Z,9.34
2023-04-29T04:38:15.321Z,9.38
2023-04-29T04:40:42.949Z,9.33
2023-04-29T04:43:28.964Z,9.39
2023-04-29T04:45:56.489Z,9.51
2023-04-29T04:48:24.692Z,9.46
2023-04-29T04:50:53.101Z,9.55
2023-04-29T04:53:20.689Z,9.51
2023-04-29T04:55:52.439Z,9.47
2023-04-29T04:58:19.724Z,9.53
2023-04-29T05:00:47.190Z,9.70
2023-04-29T05:03:15.772Z,9.71
2023-04-29T05:05:43.176Z,9.83
2023-04-29T05:08:10.637Z,9.79
2023-04-29T05:10:44.517Z,9.66
2023-04-29T05:13:12.864Z,9.71
2023-04-29T05:15:40.797Z,9.64
2023-04-29T05:18:09.224Z,9.58
2023-04-29T05:20:36.521Z,9.48
2023-04-29T05:23:04.288Z,9.62
2023-04-29T05:25:36.784Z,9.59
2023-04-29T05:28:04.627Z,9.69
2023-04-29T05:30:34.509Z,9.81
2023-04-29T05:33:02.007Z,10.03
2023-04-29T05:35:29.603Z,10.04
2023-04-29T05:37:56.858Z,10.12
2023-04-29T05:40:51.226Z,10.29
2023-04-29T05:43:36.910Z,10.51
2023-04-29T05:46:04.550Z,10.44
2023-04-29T05:48:31.853Z,10.53
2023-04-29T05:50:59.149Z,10.89
2023-04-29T05:53:26.760Z,10.86
2023-04-29T05:55:54.111Z,11.15
2023-04-29T05:58:22.311Z,11.32
2023-04-29T06:00:49.842Z,11.65
2023-04-29T06:03:22.127Z,11.80
2023-04-29T06:05:56.382Z,11.92
2023-04-29T06:08:46.828Z,11.95
2023-04-29T06:11:17.481Z,11.81
2023-04-29T06:13:44.773Z,11.99
2023-04-29T06:16:12.252Z,11.96
2023-04-29T06:18:39.532Z,12.08
2023-04-29T06:21:06.988Z,12.07
2023-04-29T06:23:34.263Z,12.10
2023-04-29T06:26:06.411Z,11.99
2023-04-29T06:28:33.785Z,12.03
2023-04-29T06:31:01.405Z,11.94
2023-04-29T06:33:30.436Z,11.96
2023-04-29T06:35:57.682Z,11.99
2023-04-29T06:38:43.518Z,11.89
2023-04-29T06:41:29.380Z,12.19
2023-04-29T06:44:16.181Z,12.24
2023-04-29T06:47:00.288Z,12.20
2023-04-29T06:49:47.956Z,12.52
2023-04-29T06:52:15.400Z,12.57
2023-04-29T06:54:43.797Z,12.73
2023-04-29T06:57:12.137Z,12.58
2023-04-29T06:59:39.373Z,12.64
2023-04-29T07:02:06.662Z,12.48
2023-04-29T07:04:34.333Z,12.54
2023-04-29T07:07:01.656Z,12.62
2023-04-29T07:09:29.510Z,12.50
2023-04-29T07:11:57.488Z,12.45
2023-04-29T07:14:24.822Z,12.32
2023-04-29T07:16:55.465Z,12.39
2023-04-29T07:19:22.799Z,12.49
2023-04-29T07:21:50.086Z,12.38
2023-04-29T07:24:17.396Z,12.42
2023-04-29T07:26:47.431Z,12.38
2023-04-29T07:29:17.035Z,12.48
2023-04-29T07:31:44.715Z,12.48
2023-04-29T07:34:12.641Z,12.65
2023-04-29T07:36:39.906Z,12.66
2023-04-29T07:39:07.464Z,12.73
2023-04-29T07:41:34.827Z,12.85
2023-04-29T07:44:02.122Z,12.89
2023-04-29T07:46:29.411Z,12.81
2023-04-29T07:48:56.724Z,12.78
2023-04-29T07:51:23.946Z,12.73
2023-04-29T07:53:51.331Z,12.69
2023-04-29T07:56:19.057Z,12.67
2023-04-29T07:58:46.992Z,12.79
2023-04-29T08:01:15.606Z,13.00
2023-04-29T08:03:43.243Z,13.05
2023-04-29T08:06:12.644Z,13.16
2023-04-29T08:08:42.471Z,13.18
2023-04-29T08:11:16.107Z,13.03
2023-04-29T08:13:43.359Z,13.11
2023-04-29T08:16:11.315Z,13.22
2023-04-29T08:18:38.676Z,13.32
2023-04-29T08:21:06.088Z,13.49
2023-04-29T08:23:33.361Z,13.51
2023-04-29T08:26:01.115Z,13.57
2023-04-29T08:28:28.426Z,13.63
2023-04-29T08:30:56.596Z,13.53
2023-04-29T08:33:23.893Z,13.48
2023-04-29T08:35:58.169Z,13.38
2023-04-29T08:38:25.550Z,13.45
2023-04-29T08:40:52.889Z,13.35
2023-04-29T08:43:20.334Z,13.22
2023-04-29T08:45:48.707Z,13.14
2023-04-29T08:48:16.713Z,13.31
2023-04-29T08:50:44.446Z,13.43
2023-04-29T08:53:13.559Z,13.60
2023-04-29T08:55:47.939Z,13.27
2023-04-29T08:58:15.728Z,13.37
2023-04-29T09:00:43.855Z,13.57
2023-04-29T09:03:18.865Z,13.53
2023-04-29T09:05:49.556Z,13.62
2023-04-29T09:08:17.081Z,13.70
2023-04-29T09:10:44.391Z,13.82
2023-04-29T09:13:23.634Z,13.79
2023-04-29T09:15:50.935Z,14.10
2023-04-29T09:18:46.488Z,14.45
2023-04-29T09:21:22.272Z,14.72
2023-04-29T09:23:51.662Z,15.02
2023-04-29T09:26:19.446Z,15.32
2023-04-29T09:28:47.803Z,15.54
2023-04-29T09:31:15.289Z,15.81
2023-04-29T09:33:52.136Z,15.76
2023-04-29T09:36:38.898Z,15.50
2023-04-29T09:39:12.828Z,15.62
2023-04-29T09:41:52.281Z,15.50
2023-04-29T09:44:26.798Z,15.58
2023-04-29T09:47:04.299Z,15.86
2023-04-29T09:49:41.935Z,15.63
2023-04-29T09:52:11.052Z,15.77
2023-04-29T09:54:39.770Z,16.00
2023-04-29T09:57:08.165Z,16.08
2023-04-29T09:59:37.743Z,16.41
2023-04-29T10:02:15.298Z,16.62
2023-04-29T10:04:43.012Z,16.59
2023-04-29T10:07:10.293Z,16.74
2023-04-29T10:09:38.151Z,16.18
2023-04-29T10:12:05.618Z,16.59
2023-04-29T10:14:32.871Z,16.34
2023-04-29T10:17:03.995Z,16.68
2023-04-29T10:19:35.905Z,16.77
2023-04-29T10:22:09.282Z,16.94
2023-04-29T10:24:37.666Z,16.84
2023-04-29T10:27:07.715Z,17.12
2023-04-29T10:29:35.618Z,17.48
2023-04-29T10:32:03.790Z,16.80
2023-04-29T10:34:32.024Z,17.15
2023-04-29T10:36:59.476Z,17.26
2023-04-29T10:39:50.420Z,17.14
2023-04-29T10:42:22.151Z,17.29
2023-04-29T10:45:22.842Z,17.56
2023-04-29T10:48:02.872Z,17.23
2023-04-29T10:50:30.615Z,17.19
2023-04-29T10:52:58.227Z,17.76
2023-04-29T10:55:25.916Z,18.14
2023-04-29T10:57:53.711Z,18.83
2023-04-29T11:00:26.900Z,18.52
2023-04-29T11:03:05.689Z,17.92
2023-04-29T11:05:37.126Z,17.78
2023-04-29T11:08:16.492Z,17.43
2023-04-29T11:10:44.033Z,17.25
2023-04-29T11:13:30.770Z,17.37
2023-04-29T11:16:05.436Z,17.26
2023-04-29T11:18:33.055Z,17.11
2023-04-29T11:21:06.533Z,17.19
2023-04-29T11:23:37.252Z,17.25
2023-04-29T11:26:04.779Z,17.14
2023-04-29T11:28:32.197Z,16.86
2023-04-29T11:30:59.888Z,17.07
2023-04-29T11:33:28.011Z,16.84
2023-04-29T11:35:55.413Z,16.96
2023-04-29T11:38:28.990Z,17.27
2023-04-29T11:40:56.829Z,17.56
2023-04-29T11:43:24.574Z,17.72
2023-04-29T11:45:52.681Z,17.91
2023-04-29T11:48:24.260Z,18.38
2023-04-29T11:50:52.431Z,18.07
2023-04-29T11:53:20.636Z,18.07
2023-04-29T11:55:47.957Z,17.89
2023-04-29T11:58:16.411Z,17.80
2023-04-29T12:00:44.776Z,18.41
2023-04-29T12:03:16.029Z,18.36
2023-04-29T12:06:01.590Z,18.60
2023-04-29T12:08:30.134Z,18.90
2023-04-29T12:10:58.839Z,18.81
2023-04-29T12:13:28.662Z,18.89
2023-04-29T12:15:56.100Z,18.79
2023-04-29T12:18:23.505Z,18.85
2023-04-29T12:20:54.780Z,18.55
2023-04-29T12:23:23.352Z,18.62
2023-04-29T12:25:57.789Z,19.20
2023-04-29T12:28:25.157Z,19.44
2023-04-29T12:30:56.701Z,19.52
2023-04-29T12:33:28.458Z,19.51
2023-04-29T12:35:57.551Z,19.54
2023-04-29T12:38:28.520Z,19.40
2023-04-29T12:40:56.557Z,19.42
2023-04-29T12:43:28.325Z,19.30
2023-04-29T12:46:03.746Z,19.37
2023-04-29T12:48:34.643Z,19.69
2023-04-29T12:51:02.075Z,19.70
2023-04-29T12:53:29.798Z,19.55
2023-04-29T12:55:57.166Z,19.54
2023-04-29T12:58:24.385Z,19.29
2023-04-29T13:00:51.837Z,19.82
2023-04-29T13:03:21.979Z,19.39
2023-04-29T13:05:52.656Z,19.65
2023-04-29T13:08:20.370Z,19.48
2023-04-29T13:10:47.612Z,20.27
2023-04-29T13:13:14.880Z,19.84
2023-04-29T13:15:42.586Z,19.68
2023-04-29T13:18:09.878Z,19.53
2023-04-29T13:20:41.430Z,19.78
2023-04-29T13:23:09.937Z,19.76
2023-04-29T13:25:37.287Z,19.63
2023-04-29T13:28:07.836Z,19.93
2023-04-29T13:30:35.403Z,19.99
2023-04-29T13:33:09.619Z,20.19
2023-04-29T13:35:40.712Z,20.49
2023-04-29T13:38:08.526Z,21.23
2023-04-29T13:40:39.281Z,21.29
2023-04-29T13:43:09.938Z,20.19
2023-04-29T13:45:42.848Z,19.84
2023-04-29T13:48:26.105Z,19.81
2023-04-29T13:59:08.477Z,20.30
2023-04-29T14:02:08.056Z,19.79
2023-04-29T14:04:05.160Z,19.45
2023-04-29T14:06:32.723Z,19.52
2023-04-29T14:09:02.256Z,19.53
2023-04-29T14:11:30.970Z,19.11
2023-04-29T14:13:58.236Z,18.71
2023-04-29T14:16:25.566Z,19.47
2023-04-29T14:18:52.823Z,21.37
2023-04-29T14:21:22.729Z,23.25
2023-04-29T14:23:50.646Z,24.01
2023-04-29T14:26:27.952Z,23.53
2023-04-29T14:28:59.814Z,23.67
2023-04-29T14:31:28.877Z,22.19
2023-04-29T14:33:56.840Z,23.24
2023-04-29T14:36:24.465Z,21.67
2023-04-29T14:38:51.797Z,20.72
2023-04-29T14:41:19.097Z,21.36
2023-04-29T14:43:46.641Z,20.90
2023-04-29T14:46:13.903Z,20.71
2023-04-29T14:48:41.154Z,20.17
2023-04-29T14:51:08.534Z,20.30
2023-04-29T14:53:35.812Z,20.16
2023-04-29T14:56:03.761Z,20.48
2023-04-29T14:58:31.112Z,20.17
2023-04-29T15:00:58.465Z,21.23
2023-04-29T15:03:25.803Z,22.72
2023-04-29T15:05:53.329Z,23.61
2023-04-29T15:08:20.582Z,24.66
2023-04-29T15:10:48.114Z,24.27
2023-04-29T15:13:15.459Z,24.38
2023-04-29T15:15:42.759Z,25.08
2023-04-29T15:18:10.071Z,23.82
2023-04-29T15:20:37.619Z,23.99
2023-04-29T15:23:05.410Z,23.27
2023-04-29T15:25:38.295Z,24.82
2023-04-29T15:28:05.912Z,24.87
2023-04-29T15:30:33.230Z,25.79
2023-04-29T15:33:00.637Z,24.99
2023-04-29T15:35:28.064Z,24.91
2023-04-29T15:37:56.538Z,24.10
2023-04-29T15:40:23.884Z,22.96
2023-04-29T15:42:51.156Z,21.95
2023-04-29T15:45:18.473Z,21.07
2023-04-29T15:47:46.501Z,19.65
2023-04-29T15:50:13.815Z,19.42
2023-04-29T15:52:41.065Z,19.29
2023-04-29T15:55:08.443Z,18.98
2023-04-29T15:57:41.066Z,18.59
2023-04-29T16:00:08.960Z,18.36
2023-04-29T16:02:36.289Z,18.27
2023-04-29T16:05:03.733Z,18.11
2023-04-29T16:07:31.291Z,18.10
2023-04-29T16:09:58.718Z,18.47
2023-04-29T16:12:26.630Z,18.37
2023-04-29T16:14:53.908Z,18.25
2023-04-29T16:17:21.489Z,18.07
2023-04-29T16:19:48.725Z,18.03
2023-04-29T16:22:15.981Z,17.85
2023-04-29T16:24:43.275Z,17.55
2023-04-29T16:27:10.632Z,17.34
2023-04-29T16:29:37.903Z,17.34
2023-04-29T16:32:05.369Z,17.38
2023-04-29T16:34:32.678Z,17.19
2023-04-29T16:36:59.908Z,17.15
2023-04-29T16:39:27.162Z,17.08
2023-04-29T16:41:54.404Z,17.06
2023-04-29T16:44:21.725Z,17.00
2023-04-29T16:46:49.030Z,16.83
2023-04-29T16:49:16.275Z,16.75
2023-04-29T16:51:43.585Z,16.80
2023-04-29T16:54:10.993Z,16.66
2023-04-29T16:56:38.348Z,16.41
2023-04-29T16:59:05.684Z,16.33
2023-04-29T17:01:33.140Z,16.35
2023-04-29T17:04:01.195Z,16.29
2023-04-29T17:06:28.524Z,16.21
2023-04-29T17:08:55.914Z,16.12
2023-04-29T17:11:24.184Z,16.09
2023-04-29T17:13:51.428Z,15.83
2023-04-29T17:16:18.783Z,15.77
2023-04-29T17:18:46.477Z,15.76
2023-04-29T17:21:13.718Z,15.80
2023-04-29T17:23:41.091Z,15.71
2023-04-29T17:26:08.346Z,15.63
2023-04-29T17:28:35.683Z,15.57
2023-04-29T17:31:02.995Z,15.48
2023-04-29T17:33:36.057Z,15.41
2023-04-29T17:36:03.852Z,15.10
2023-04-29T17:38:33.162Z,15.03
2023-04-29T17:41:00.741Z,14.87
2023-04-29T17:43:28.039Z,14.82
2023-04-29T17:45:55.397Z,14.69
2023-04-29T17:48:22.795Z,14.69
2023-04-29T17:50:50.046Z,14.61
2023-04-29T17:53:17.353Z,14.59
2023-04-29T17:55:44.980Z,14.52
2023-04-29T17:58:12.553Z,14.45
2023-04-29T18:00:41.763Z,14.36
2023-04-29T18:03:09.347Z,14.27
2023-04-29T18:05:36.727Z,14.14
2023-04-29T18:08:04.174Z,13.85
2023-04-29T18:10:31.474Z,13.74
2023-04-29T18:12:58.710Z,13.69
2023-04-29T18:15:26.045Z,13.51
2023-04-29T18:17:54.508Z,13.31
2023-04-29T18:20:22.523Z,13.14
2023-04-29T18:22:50.666Z,13.10
2023-04-29T18:25:18.033Z,12.97
2023-04-29T18:27:45.330Z,12.91
2023-04-29T18:30:13.065Z,12.78
2023-04-29T18:32:40.344Z,12.86
2023-04-29T18:35:08.051Z,12.82
2023-04-29T18:37:35.426Z,12.84
2023-04-29T18:40:02.789Z,12.81
2023-04-29T18:42:32.826Z,12.83
2023-04-29T18:45:00.116Z,12.89
2023-04-29T18:47:27.454Z,12.84
2023-04-29T18:49:54.969Z,12.88
2023-04-29T18:52:22.347Z,12.81
2023-04-29T18:54:49.575Z,12.75
2023-04-29T18:57:16.825Z,12.86
2023-04-29T18:59:44.160Z,12.80
2023-04-29T19:02:11.429Z,12.70
2023-04-29T19:04:38.711Z,12.69
2023-04-29T19:07:06.185Z,12.59
2023-04-29T19:09:33.584Z,12.70
2023-04-29T19:12:03.522Z,12.62
2023-04-29T19:14:33.035Z,12.56
2023-04-29T19:17:00.391Z,12.54
2023-04-29T19:19:27.698Z,12.48
2023-04-29T19:21:54.925Z,12.46
2023-04-29T19:24:22.200Z,12.44
2023-04-29T19:26:49.438Z,12.42
2023-04-29T19:29:16.726Z,12.44
2023-04-29T19:31:44.097Z,12.41
2023-04-29T19:34:11.720Z,12.44
2023-04-29T19:36:38.979Z,12.23
2023-04-29T19:39:06.390Z,12.30
2023-04-29T19:41:35.079Z,12.29
2023-04-29T19:44:02.606Z,12.19
2023-04-29T19:46:29.937Z,12.19
2023-04-29T19:48:57.230Z,12.05
2023-04-29T19:51:24.592Z,11.95
2023-04-29T19:53:52.526Z,11.97
2023-04-29T19:56:20.091Z,12.06
2023-04-29T19:58:47.457Z,12.11
2023-04-29T20:01:14.771Z,12.07
2023-04-29T20:03:42.160Z,12.13
2023-04-29T20:06:10.487Z,12.23
2023-04-29T20:08:37.932Z,12.08
2023-04-29T20:11:05.426Z,12.09
2023-04-29T20:13:32.688Z,12.14
2023-04-29T20:16:00.453Z,12.12
2023-04-29T20:18:27.734Z,12.10
2023-04-29T20:20:55.008Z,12.02
2023-04-29T20:23:22.375Z,12.09
2023-04-29T20:25:49.697Z,12.07
2023-04-29T20:28:16.987Z,12.10
2023-04-29T20:30:44.258Z,12.08
2023-04-29T20:33:11.641Z,12.09
2023-04-29T20:35:38.937Z,12.12
2023-04-29T20:38:07.353Z,12.14
2023-04-29T20:40:34.989Z,12.22
2023-04-29T20:43:02.226Z,12.21
2023-04-29T20:45:29.465Z,12.20
2023-04-29T20:47:56.870Z,12.20
2023-04-29T20:50:24.724Z,12.14
2023-04-29T20:52:52.509Z,12.08
2023-04-29T20:55:19.797Z,12.15
2023-04-29T20:57:47.065Z,12.11
2023-04-29T21:00:15.082Z,12.04
2023-04-29T21:02:46.151Z,11.96
2023-04-29T21:05:13.498Z,11.93
2023-04-29T21:07:40.754Z,11.84
2023-04-29T21:10:08.307Z,11.83
2023-04-29T21:12:35.867Z,11.83
2023-04-29T21:15:03.122Z,11.94
2023-04-29T21:17:30.357Z,11.95
2023-04-29T21:19:57.578Z,11.85
2023-04-29T21:22:24.873Z,11.69
2023-04-29T21:24:52.149Z,11.83
2023-04-29T21:27:19.501Z,11.85
2023-04-29T21:29:46.762Z,11.83
2023-04-29T21:32:15.429Z,11.72
2023-04-29T21:34:43.147Z,11.73
2023-04-29T21:37:10.410Z,11.66
2023-04-29T21:39:37.670Z,11.68
2023-04-29T21:42:05.033Z,11.65
2023-04-29T21:44:32.322Z,11.53
2023-04-29T21:47:00.811Z,11.58
2023-04-29T21:49:28.129Z,11.33
2023-04-29T21:51:55.522Z,11.14
2023-04-29T21:54:22.779Z,11.01
2023-04-29T21:56:50.025Z,11.01
2023-04-29T21:59:17.536Z,10.87
2023-04-29T22:01:47.664Z,10.80
2023-04-29T22:04:19.125Z,10.82
2023-04-29T22:06:46.584Z,10.85
2023-04-29T22:09:14.008Z,10.87
2023-04-29T22:11:41.396Z,10.69
2023-04-29T22:14:08.668Z,10.62
2023-04-29T22:16:36.119Z,10.61
2023-04-29T22:19:03.906Z,10.59
2023-04-29T22:21:31.751Z,10.52
2023-04-29T22:23:59.057Z,10.39
2023-04-29T22:26:26.307Z,10.42
2023-04-29T22:28:53.562Z,10.31
2023-04-29T22:31:20.930Z,10.28
2023-04-29T22:33:48.275Z,10.39
2023-04-29T22:36:15.519Z,10.28
2023-04-29T22:38:42.755Z,10.32
2023-04-29T22:41:11.685Z,10.27
2023-04-29T22:43:40.105Z,10.25
2023-04-29T22:46:07.458Z,10.24
2023-04-29T22:48:34.783Z,10.21
2023-04-29T22:51:03.841Z,10.13
2023-04-29T22:53:31.118Z,10.04
2023-04-29T22:55:58.924Z,10.09
2023-04-29T22:58:26.188Z,9.93
2023-04-29T23:00:54.850Z,9.87
2023-04-29T23:03:22.211Z,9.88
2023-04-29T23:05:49.516Z,9.92
2023-04-29T23:08:16.733Z,9.81
2023-04-29T23:10:48.609Z,9.76
2023-04-29T23:13:16.364Z,9.67
2023-04-29T23:15:44.001Z,9.62
2023-04-29T23:18:11.459Z,9.61
2023-04-29T23:20:38.800Z,9.54
2023-04-29T23:23:06.057Z,9.54
2023-04-29T23:25:33.383Z,9.44
2023-04-29T23:28:00.793Z,9.38
2023-04-29T23:30:28.081Z,9.20
2023-04-29T23:32:55.436Z,9.17
2023-04-29T23:35:22.775Z,9.08
2023-04-29T23:37:50.041Z,9.02
2023-04-29T23:40:17.347Z,9.10
2023-04-29T23:42:44.844Z,9.01
2023-04-29T23:45:12.273Z,8.84
2023-04-29T23:47:39.637Z,8.59
2023-04-29T23:50:07.558Z,8.53
2023-04-29T23:52:34.851Z,8.70
2023-04-29T23:55:02.617Z,8.61
2023-04-29T23:57:29.853Z,8.73
2023-04-29T23:59:57.311Z,8.62
